Time;durP1;ratioP1;P1;durP2;ratioP2;P2;SDS_P1;SDS_P2;PMS_P1;PMS_P2;Temp;Humidity;BMP_temperature;BMP_pressure;BME280_temperature;BME280_humidity;BME280_pressure;Samples;Min_cycle;Max_cycle;Signal;HPM_P1;HPM_P2
2022/01/14 00:00:06;;;;;;;442.98;160.35;;;;;;;10.02;100.00;99159.38;5045225;28;20128;-68
2022/01/14 00:02:49;;;;;;;446.48;158.27;;;;;;;10.01;100.00;99157.69;5024059;28;20120;-68
2022/01/14 00:05:44;;;;;;;433.85;160.75;;;;;;;10.10;100.00;99160.09;4989559;28;20057;-68
2022/01/14 00:08:19;;;;;;;427.20;156.05;;;;;;;10.13;100.00;99159.19;5006113;28;20049;-68
2022/01/14 00:11:16;;;;;;;452.77;161.07;;;;;;;10.13;100.00;99161.75;5018305;28;20049;-66
2022/01/14 00:13:59;;;;;;;438.75;157.57;;;;;;;10.09;100.00;99166.09;5026277;28;20056;-69
2022/01/14 00:16:49;;;;;;;427.90;155.48;;;;;;;10.12;100.00;99170.34;5017621;28;20115;-67
2022/01/14 00:19:38;;;;;;;399.45;139.85;;;;;;;10.05;100.00;99161.91;5007966;28;20053;-69
2022/01/14 00:22:20;;;;;;;392.60;135.88;;;;;;;10.11;100.00;99168.66;5006476;28;20061;-69
2022/01/14 00:34:08;;;;;;;394.08;127.22;;;;;;;9.90;100.00;99180.19;5005429;28;20057;-68
2022/01/14 00:36:50;;;;;;;398.05;130.75;;;;;;;9.91;100.00;99172.47;5009241;28;20046;-68
2022/01/14 00:39:39;;;;;;;370.15;127.60;;;;;;;9.96;100.00;99175.81;5022531;28;20054;-68
2022/01/14 00:42:27;;;;;;;381.98;126.93;;;;;;;9.99;100.00;99175.72;5010361;28;20050;-68
2022/01/14 00:45:22;;;;;;;361.20;123.85;;;;;;;10.10;100.00;99172.09;5012141;28;20056;-68
2022/01/14 00:48:00;;;;;;;372.52;122.97;;;;;;;10.02;100.00;99177.41;5003134;28;20045;-69
2022/01/14 00:50:48;;;;;;;360.23;122.05;;;;;;;9.94;100.00;99177.56;5006033;28;20049;-69
2022/01/14 00:53:38;;;;;;;378.23;127.25;;;;;;;9.93;100.00;99180.16;5006063;28;20791;-69
2022/01/14 00:56:32;;;;;;;372.33;123.28;;;;;;;9.95;100.00;99184.41;5021275;28;20053;-69
2022/01/14 00:59:18;;;;;;;366.88;121.72;;;;;;;9.87;100.00;99191.44;5007715;28;20077;-69
2022/01/14 01:02:07;;;;;;;366.08;122.20;;;;;;;9.88;100.00;99192.28;5026052;28;20045;-69
2022/01/14 01:04:50;;;;;;;351.60;120.32;;;;;;;9.86;100.00;99188.88;5026612;28;20068;-68
2022/01/14 01:07:44;;;;;;;329.52;117.28;;;;;;;9.86;100.00;99194.88;5025225;28;20540;-69
2022/01/14 01:10:33;;;;;;;334.67;113.78;;;;;;;9.82;100.00;99202.66;5011338;28;20067;-69
2022/01/14 01:13:34;;;;;;;323.55;111.00;;;;;;;9.76;100.00;99208.78;5044952;28;20136;-69
2022/01/14 01:16:23;;;;;;;324.45;110.50;;;;;;;9.71;100.00;99208.03;5025622;28;20360;-69
2022/01/14 01:19:05;;;;;;;287.55;101.47;;;;;;;9.71;100.00;99204.59;5030787;28;20065;-69
2022/01/14 01:21:54;;;;;;;293.67;102.13;;;;;;;9.64;100.00;99208.16;5025649;28;20419;-69
2022/01/14 01:24:49;;;;;;;278.25;97.60;;;;;;;9.71;100.00;99215.75;5007881;28;20049;-69
2022/01/14 01:27:40;;;;;;;273.98;97.50;;;;;;;9.68;100.00;99214.94;5009786;28;20483;-69
2022/01/14 01:33:18;;;;;;;267.48;98.65;;;;;;;9.71;100.00;99220.88;5045077;28;20075;-69
2022/01/14 01:36:00;;;;;;;289.40;97.60;;;;;;;9.71;100.00;99226.03;5040659;28;20060;-69
2022/01/14 01:38:49;;;;;;;278.15;98.07;;;;;;;9.60;100.00;99222.78;5032798;28;20052;-69
2022/01/14 01:41:31;;;;;;;294.20;100.55;;;;;;;9.89;100.00;99224.84;5010127;28;20053;-69
2022/01/14 01:44:15;;;;;;;299.60;101.93;;;;;;;9.85;100.00;99228.34;5005651;28;20053;-69
2022/01/14 01:47:04;;;;;;;299.45;100.43;;;;;;;9.76;100.00;99231.06;5041697;28;20032;-69
2022/01/14 01:49:53;;;;;;;272.83;94.93;;;;;;;9.75;100.00;99231.94;5040240;28;20056;-69
2022/01/14 01:52:36;;;;;;;275.17;96.03;;;;;;;9.68;100.00;99245.78;5011348;28;20060;-69
2022/01/14 01:55:25;;;;;;;279.20;98.65;;;;;;;9.73;100.00;99250.00;5028763;28;20049;-69
2022/01/14 01:58:07;;;;;;;264.33;94.88;;;;;;;9.73;100.00;99254.31;5028437;28;20125;-69
2022/01/14 02:00:55;;;;;;;267.67;95.57;;;;;;;9.80;100.00;99250.75;5045085;28;20431;-68
2022/01/14 02:03:38;;;;;;;271.98;95.18;;;;;;;9.66;100.00;99258.69;5021919;28;20041;-68
2022/01/14 02:06:33;;;;;;;281.48;95.47;;;;;;;9.72;100.00;99260.31;5028097;28;20049;-69
2022/01/14 02:09:23;;;;;;;280.13;94.72;;;;;;;9.71;100.00;99268.91;5028393;28;20111;-68
2022/01/14 02:12:09;;;;;;;285.88;100.72;;;;;;;9.70;100.00;99265.50;5009303;28;20042;-69
2022/01/14 02:15:07;;;;;;;261.65;90.88;;;;;;;9.72;100.00;99270.63;5022985;28;20056;-68
2022/01/14 02:24:22;;;;;;;285.95;94.50;;;;;;;9.74;100.00;99281.69;5019340;28;20132;-69
2022/01/14 02:27:14;;;;;;;278.77;95.82;;;;;;;9.71;100.00;99274.91;5018165;28;20053;-68
2022/01/14 02:29:55;;;;;;;265.67;93.18;;;;;;;9.72;100.00;99278.31;5020213;28;20080;-68
2022/01/14 02:32:43;;;;;;;293.33;97.07;;;;;;;9.81;100.00;99284.19;5018350;28;20104;-68
2022/01/14 02:35:25;;;;;;;302.13;96.85;;;;;;;9.87;100.00;99281.47;5020474;28;20049;-68
2022/01/14 02:38:14;;;;;;;270.50;97.03;;;;;;;9.81;100.00;99278.19;5001637;28;20140;-68
2022/01/14 02:41:03;;;;;;;267.95;94.63;;;;;;;9.78;100.00;99283.38;5013982;28;20107;-69
2022/01/14 02:43:45;;;;;;;295.23;96.70;;;;;;;9.82;100.00;99285.00;5018449;28;20161;-69
2022/01/14 02:46:49;;;;;;;277.17;97.45;;;;;;;9.75;100.00;99291.97;4986358;28;20185;-69
2022/01/14 02:49:32;;;;;;;284.17;93.35;;;;;;;9.73;100.00;99303.19;5019407;28;20443;-68
2022/01/14 02:52:27;;;;;;;284.83;94.03;;;;;;;9.77;100.00;99292.81;5014023;28;20184;-69
2022/01/14 02:55:18;;;;;;;281.42;94.60;;;;;;;9.90;100.00;99298.56;5017502;28;20064;-69
2022/01/14 02:58:07;;;;;;;292.73;97.43;;;;;;;9.89;100.00;99300.31;5016568;28;20048;-68
2022/01/14 03:00:52;;;;;;;295.20;98.60;;;;;;;9.82;100.00;99292.72;5016391;28;20050;-69
2022/01/14 03:03:46;;;;;;;275.27;94.43;;;;;;;9.83;100.00;99307.28;5029867;28;20059;-69
2022/01/14 03:06:35;;;;;;;283.25;94.57;;;;;;;9.84;100.00;99316.69;5045092;28;20053;-69
2022/01/14 03:09:24;;;;;;;264.75;89.55;;;;;;;9.99;100.00;99324.16;5045761;28;20502;-68
2022/01/14 03:12:13;;;;;;;266.25;89.32;;;;;;;9.93;100.00;99330.28;5042186;28;20057;-68
2022/01/14 03:14:55;;;;;;;255.10;88.68;;;;;;;9.96;100.00;99321.66;5036587;28;20053;-69
2022/01/14 03:17:44;;;;;;;251.60;87.07;;;;;;;10.01;100.00;99332.72;5037469;28;20045;-67
2022/01/14 03:23:25;;;;;;;248.30;86.72;;;;;;;10.04;100.00;99332.66;5044610;28;20868;-69
2022/01/14 03:26:14;;;;;;;259.08;89.25;;;;;;;10.18;100.00;99333.28;5037756;28;20056;-68
2022/01/14 03:28:57;;;;;;;255.65;88.72;;;;;;;10.06;100.00;99345.47;5042999;28;20044;-68
2022/01/14 03:31:46;;;;;;;246.00;90.03;;;;;;;10.04;100.00;99345.53;5024885;28;20551;-68
2022/01/14 03:34:28;;;;;;;237.85;86.05;;;;;;;10.16;100.00;99347.03;5035823;28;20120;-69
2022/01/14 03:37:16;;;;;;;231.45;84.47;;;;;;;10.18;100.00;99348.75;5017711;28;20049;-69
2022/01/14 03:39:58;;;;;;;255.68;88.32;;;;;;;10.27;100.00;99353.72;5026372;28;20516;-69
2022/01/14 03:42:47;;;;;;;248.65;90.03;;;;;;;10.19;100.00;99354.75;5044903;28;20705;-69
2022/01/14 03:45:29;;;;;;;259.05;88.30;;;;;;;10.13;100.00;99358.25;5042493;28;20184;-69
2022/01/14 03:48:18;;;;;;;257.38;90.93;;;;;;;10.23;100.00;99359.81;5040745;28;20497;-69
2022/01/14 03:51:00;;;;;;;243.02;87.43;;;;;;;10.24;100.00;99365.81;5029676;28;20055;-68
2022/01/14 03:53:49;;;;;;;256.88;88.03;;;;;;;10.38;100.00;99374.13;5013797;28;20041;-69
2022/01/14 03:56:31;;;;;;;259.08;90.38;;;;;;;10.21;100.00;99381.31;5044745;28;20084;-69
2022/01/14 03:59:21;;;;;;;250.45;89.38;;;;;;;10.29;100.00;99379.47;5042451;28;20136;-69
2022/01/14 04:02:03;;;;;;;270.15;90.07;;;;;;;10.38;100.00;99373.31;5046314;28;20049;-68
2022/01/14 04:04:58;;;;;;;276.42;90.65;;;;;;;10.35;100.00;99374.19;5027515;28;20048;-69
2022/01/14 04:07:33;;;;;;;261.95;93.28;;;;;;;10.54;100.00;99374.69;4991786;28;20045;-69
2022/01/14 04:10:28;;;;;;;263.88;93.97;;;;;;;10.72;100.00;99379.50;5009321;28;20045;-69
2022/01/14 04:13:11;;;;;;;259.90;89.85;;;;;;;10.77;100.00;99385.44;5006139;28;20484;-68
2022/01/14 04:16:00;;;;;;;237.50;88.35;;;;;;;10.68;100.00;99383.88;5009395;28;20072;-69
2022/01/14 04:18:42;;;;;;;248.32;92.78;;;;;;;10.66;100.00;99385.63;5015400;28;20049;-69
2022/01/14 04:21:23;;;;;;;249.80;89.97;;;;;;;10.65;100.00;99386.50;5014663;28;20037;-69
2022/01/14 04:24:11;;;;;;;251.82;90.28;;;;;;;10.61;100.00;99387.47;5018940;28;20045;-69
2022/01/14 04:26:53;;;;;;;247.57;89.03;;;;;;;10.79;100.00;99388.81;5015530;28;20065;-70
2022/01/14 04:29:42;;;;;;;248.82;90.13;;;;;;;10.85;100.00;99398.16;5021338;28;20041;-69
2022/01/14 04:32:24;;;;;;;230.07;89.35;;;;;;;10.66;100.00;99397.66;5015667;28;20141;-69
2022/01/14 04:35:13;;;;;;;258.65;95.22;;;;;;;10.74;100.00;99398.38;5010625;28;20143;-70
2022/01/14 04:37:55;;;;;;;263.75;94.47;;;;;;;10.68;100.00;99396.75;5016039;28;20544;-69
2022/01/14 04:40:51;;;;;;;252.00;93.85;;;;;;;10.69;100.00;99400.19;5022771;28;20056;-68
2022/01/14 04:43:29;;;;;;;273.75;96.80;;;;;;;10.89;100.00;99404.94;5019214;28;20833;-68
2022/01/14 04:46:47;;;;;;;276.48;100.05;;;;;;;10.77;100.00;99402.63;5013992;28;20060;-69
2022/01/14 04:49:25;;;;;;;267.42;99.88;;;;;;;10.96;100.00;99404.78;5015478;28;20527;-69
2022/01/14 04:52:13;;;;;;;273.63;99.18;;;;;;;10.97;100.00;99401.34;5019421;28;20050;-69
2022/01/14 04:54:56;;;;;;;270.23;97.50;;;;;;;11.04;100.00;99400.34;5015942;28;20049;-69
2022/01/14 04:57:52;;;;;;;270.55;95.72;;;;;;;10.87;100.00;99407.56;5016609;28;20048;-69
2022/01/14 05:00:28;;;;;;;268.73;96.43;;;;;;;10.90;100.00;99415.22;5015373;28;20046;-69
2022/01/14 05:03:24;;;;;;;267.60;100.88;;;;;;;11.38;100.00;99420.28;5017639;28;20056;-69
2022/01/14 05:06:07;;;;;;;290.13;101.35;;;;;;;11.44;100.00;99422.72;5022161;28;20127;-69
2022/01/14 05:09:06;;;;;;;298.77;106.05;;;;;;;11.71;100.00;99419.53;5034434;28;20037;-69
2022/01/14 05:11:51;;;;;;;279.85;102.47;;;;;;;11.77;100.00;99419.41;5039645;28;20540;-68
2022/01/14 05:14:39;;;;;;;284.23;101.47;;;;;;;11.67;100.00;99430.78;5032351;28;20041;-69
2022/01/14 05:17:21;;;;;;;289.05;101.35;;;;;;;11.79;100.00;99427.13;5016412;28;20128;-69
2022/01/14 05:20:12;;;;;;;289.27;102.03;;;;;;;11.94;100.00;99423.34;5037673;28;20057;-70
2022/01/14 05:22:54;;;;;;;277.63;102.75;;;;;;;12.02;100.00;99430.03;5005609;28;20041;-67
2022/01/14 05:25:35;;;;;;;262.00;100.65;;;;;;;11.99;100.00;99429.22;5023066;28;20067;-67
2022/01/14 05:28:24;;;;;;;272.58;103.38;;;;;;;12.25;100.00;99424.28;5042962;28;20056;-67
2022/01/14 05:31:06;;;;;;;293.67;106.63;;;;;;;11.95;100.00;99425.03;5034282;28;20041;-66
2022/01/14 05:33:55;;;;;;;299.77;108.35;;;;;;;11.85;100.00;99433.00;5035250;28;20133;-70
2022/01/14 05:36:37;;;;;;;291.02;106.95;;;;;;;11.93;100.00;99426.81;5037162;28;20059;-69
2022/01/14 05:39:29;;;;;;;284.35;103.75;;;;;;;12.21;100.00;99433.03;5036639;28;20403;-69
2022/01/14 05:42:13;;;;;;;282.90;104.63;;;;;;;12.27;100.00;99428.53;5040110;28;20087;-71
2022/01/14 05:45:02;;;;;;;279.70;106.35;;;;;;;12.65;100.00;99440.47;5040718;28;20049;-69
2022/01/14 05:47:44;;;;;;;281.45;106.57;;;;;;;12.37;100.00;99426.56;5041674;28;20128;-66
2022/01/14 05:50:33;;;;;;;260.98;101.35;;;;;;;12.63;100.00;99434.50;5039111;28;20049;-68
2022/01/14 05:53:14;;;;;;;265.48;100.55;;;;;;;12.73;100.00;99431.66;5034481;28;20064;-66
2022/01/14 05:56:03;;;;;;;254.27;101.32;;;;;;;12.82;100.00;99436.59;5038491;28;20060;-65
2022/01/14 05:58:45;;;;;;;267.25;105.28;;;;;;;13.12;100.00;99438.34;5018512;28;20130;-64
2022/01/14 06:01:34;;;;;;;269.42;103.72;;;;;;;13.02;100.00;99423.97;5026056;28;20045;-62
2022/01/14 06:04:16;;;;;;;253.82;99.88;;;;;;;13.01;100.00;99430.00;5030251;28;20053;-64
2022/01/14 06:07:05;;;;;;;250.93;100.10;;;;;;;13.17;100.00;99433.91;5016080;28;20061;-64
2022/01/14 06:09:47;;;;;;;245.93;104.90;;;;;;;13.76;100.00;99426.13;5018400;28;20496;-66
2022/01/14 06:12:35;;;;;;;255.25;104.35;;;;;;;14.08;100.00;99428.53;5009273;28;20481;-67
2022/01/14 06:15:17;;;;;;;262.90;104.65;;;;;;;13.77;100.00;99422.63;5013897;28;20061;-63
2022/01/14 06:18:13;;;;;;;244.60;101.40;;;;;;;13.98;100.00;99421.94;5016013;28;20053;-66
2022/01/14 06:20:48;;;;;;;262.45;101.43;;;;;;;13.92;100.00;99419.56;5007437;28;20046;-61
2022/01/14 06:23:42;;;;;;;263.35;101.82;;;;;;;14.10;100.00;99421.56;5015835;28;20537;-63
2022/01/14 06:26:32;;;;;;;255.30;102.30;;;;;;;14.05;100.00;99414.81;5017042;28;20053;-65
2022/01/14 06:29:15;;;;;;;251.80;103.20;;;;;;;14.47;100.00;99407.41;5014671;28;20060;-65
2022/01/14 06:32:04;;;;;;;260.17;107.22;;;;;;;14.01;100.00;99408.91;5020218;28;20150;-65
2022/01/14 06:34:53;;;;;;;259.92;103.78;;;;;;;14.11;100.00;99393.91;5015208;28;20045;-64
2022/01/14 06:37:35;;;;;;;246.82;104.28;;;;;;;14.53;100.00;99392.47;5013086;28;20083;-64
2022/01/14 06:40:24;;;;;;;254.23;106.40;;;;;;;13.89;100.00;99382.56;5007599;28;20135;-64
2022/01/14 06:43:07;;;;;;;261.42;106.40;;;;;;;14.27;100.00;99374.38;5000124;28;20049;-65
2022/01/14 06:45:56;;;;;;;242.45;104.03;;;;;;;14.40;100.00;99374.81;5019176;28;20049;-65
2022/01/14 06:48:38;;;;;;;241.57;102.32;;;;;;;14.77;100.00;99370.03;5017697;28;20049;-67
2022/01/14 06:51:27;;;;;;;253.60;106.07;;;;;;;14.59;100.00;99365.53;5021585;28;20046;-66
2022/01/14 06:54:16;;;;;;;254.48;107.68;;;;;;;14.36;100.00;99363.69;5014451;28;20052;-65
2022/01/14 06:57:05;;;;;;;256.58;107.65;;;;;;;13.88;100.00;99354.97;5012266;28;20057;-64
2022/01/14 06:59:47;;;;;;;240.02;107.38;;;;;;;14.25;100.00;99354.59;5018692;28;20735;-66
2022/01/14 07:02:36;;;;;;;255.73;109.30;;;;;;;14.45;100.00;99345.25;5015937;28;20100;-67
2022/01/14 07:05:32;;;;;;;247.18;106.18;;;;;;;14.58;100.00;99347.41;5016701;28;20049;-64
2022/01/14 07:08:28;;;;;;;250.05;108.45;;;;;;;14.44;100.00;99340.97;5012684;28;20072;-64
2022/01/14 07:11:04;;;;;;;254.50;113.82;;;;;;;14.43;100.00;99343.63;5018829;28;20461;-64
2022/01/14 07:13:54;;;;;;;253.30;107.22;;;;;;;14.54;100.00;99339.72;4999535;28;20057;-65
2022/01/14 07:16:36;;;;;;;247.60;106.57;;;;;;;14.58;100.00;99330.13;4996900;28;20069;-67
2022/01/14 07:19:26;;;;;;;237.38;103.90;;;;;;;14.74;100.00;99330.41;5008370;28;20061;-65
2022/01/14 07:22:08;;;;;;;252.55;107.25;;;;;;;14.86;100.00;99320.41;5000327;28;20108;-67
2022/01/14 07:24:58;;;;;;;250.55;104.00;;;;;;;14.59;100.00;99318.84;5006027;28;20058;-66
2022/01/14 07:27:41;;;;;;;252.43;107.97;;;;;;;15.01;100.00;99315.53;5015557;28;20050;-65
2022/01/14 07:30:24;;;;;;;243.30;102.55;;;;;;;14.85;100.00;99310.09;5015870;28;20444;-68
2022/01/14 07:33:13;;;;;;;257.30;106.45;;;;;;;15.29;100.00;99311.00;5016356;28;20060;-65
2022/01/14 07:36:02;;;;;;;232.40;100.53;;;;;;;15.20;100.00;99301.81;5010192;28;20054;-64
2022/01/14 07:38:45;;;;;;;239.95;103.88;;;;;;;14.81;100.00;99285.19;4978819;28;20046;-64
2022/01/14 07:41:37;;;;;;;234.05;100.97;;;;;;;15.25;100.00;99284.31;5000163;28;20049;-64
2022/01/14 07:44:20;;;;;;;239.02;101.30;;;;;;;14.91;100.00;99279.59;5015665;28;20053;-64
2022/01/14 07:47:10;;;;;;;237.85;102.63;;;;;;;14.57;100.00;99271.38;5000466;28;20069;-65
2022/01/14 07:49:53;;;;;;;237.88;102.53;;;;;;;14.75;100.00;99264.66;5010889;28;20133;-63
2022/01/14 07:52:42;;;;;;;240.38;100.47;;;;;;;15.12;100.00;99266.69;4998258;28;20053;-63
2022/01/14 07:55:24;;;;;;;225.88;100.63;;;;;;;15.31;100.00;99254.69;5015407;28;20190;-65
2022/01/14 07:58:13;;;;;;;234.10;100.30;;;;;;;15.36;100.00;99262.28;5011691;28;20500;-65
2022/01/14 08:00:57;;;;;;;252.25;102.32;;;;;;;15.61;100.00;99250.88;5017651;28;20040;-67
2022/01/14 08:03:51;;;;;;;218.15;100.00;;;;;;;15.45;100.00;99251.53;4971410;28;20152;-66
2022/01/14 08:06:38;;;;;;;228.57;100.38;;;;;;;15.43;100.00;99256.78;5018668;28;20152;-65
2022/01/14 08:09:27;;;;;;;225.77;97.22;;;;;;;15.43;100.00;99248.13;5029123;28;20051;-66
2022/01/14 08:12:22;;;;;;;241.95;100.18;;;;;;;15.53;100.00;99246.88;5010329;28;20048;-66
2022/01/14 08:14:58;;;;;;;226.35;100.68;;;;;;;15.57;100.00;99246.69;5010702;28;20122;-64
2022/01/14 08:17:47;;;;;;;235.55;104.28;;;;;;;15.62;100.00;99247.38;5026750;28;20126;-64
2022/01/14 08:20:36;;;;;;;238.75;99.28;;;;;;;15.60;100.00;99241.38;5040080;28;20439;-64
2022/01/14 08:23:19;;;;;;;229.55;100.93;;;;;;;15.53;100.00;99234.75;5037445;28;20095;-65
2022/01/14 08:26:08;;;;;;;224.25;98.10;;;;;;;15.19;100.00;99237.00;5040801;28;20059;-64
2022/01/14 08:28:50;;;;;;;221.55;98.97;;;;;;;15.28;100.00;99226.25;5023470;28;20068;-63
2022/01/14 08:31:39;;;;;;;237.27;98.20;;;;;;;15.56;100.00;99231.19;5032937;28;20056;-66
2022/01/14 08:34:35;;;;;;;236.90;97.03;;;;;;;15.54;100.00;99222.63;5040046;28;20076;-67
2022/01/14 08:37:10;;;;;;;217.20;99.43;;;;;;;15.53;100.00;99226.97;5040082;28;20064;-66
2022/01/14 08:40:00;;;;;;;209.18;95.57;;;;;;;15.74;100.00;99224.38;5034053;28;20056;-66
2022/01/14 08:42:53;;;;;;;204.68;95.03;;;;;;;15.80;100.00;99218.94;5038212;28;20102;-67
2022/01/14 08:45:37;;;;;;;200.82;90.50;;;;;;;15.72;100.00;99221.88;5035072;28;20053;-64
2022/01/14 08:48:20;;;;;;;201.52;90.72;;;;;;;15.69;100.00;99217.63;5032087;28;20572;-65
2022/01/14 08:51:10;;;;;;;;;;;;;;;15.58;100.00;99214.63;5037835;28;20073;-66
2022/01/14 08:53:51;;;;;;;198.30;88.03;;;;;;;15.44;99.40;99209.13;5043018;28;20360;-67
2022/01/14 08:56:42;;;;;;;199.43;89.75;;;;;;;15.40;100.00;99215.38;5044841;28;20099;-65
2022/01/14 08:59:29;;;;;;;205.55;93.90;;;;;;;15.58;100.00;99199.03;5041692;28;20049;-65
2022/01/14 09:02:21;;;;;;;214.80;94.78;;;;;;;15.68;100.00;99204.69;5044564;28;20067;-65
2022/01/14 09:05:11;;;;;;;217.05;96.32;;;;;;;15.69;100.00;99199.44;5034513;28;20053;-65
2022/01/14 09:08:01;;;;;;;222.27;98.30;;;;;;;15.52;99.71;99199.28;5013005;28;20064;-65
2022/01/14 09:10:43;;;;;;;228.68;100.50;;;;;;;15.58;100.00;99188.66;5018611;28;20507;-65
2022/01/14 09:13:32;;;;;;;227.65;100.97;;;;;;;15.58;100.00;99188.66;5028748;28;20128;-65
2022/01/14 09:16:17;;;;;;;242.30;103.82;;;;;;;15.65;100.00;99189.22;5017645;28;20057;-65
2022/01/14 09:19:12;;;;;;;237.80;104.38;;;;;;;15.72;100.00;99175.09;5005593;28;20415;-65
2022/01/14 09:21:51;;;;;;;227.90;103.05;;;;;;;15.79;100.00;99181.72;5027345;28;20053;-65
2022/01/14 09:24:59;;;;;;;235.27;103.55;;;;;;;15.74;100.00;99172.41;5016866;28;20770;-65
2022/01/14 09:27:41;;;;;;;218.73;98.05;;;;;;;15.68;100.00;99171.78;5021591;28;20050;-65
2022/01/14 09:30:30;;;;;;;239.43;102.43;;;;;;;15.71;100.00;99167.38;5014483;28;20115;-65
2022/01/14 09:33:21;;;;;;;230.75;101.63;;;;;;;15.62;100.00;99159.06;5026986;28;20387;-66
2022/01/14 09:36:02;;;;;;;233.82;104.65;;;;;;;15.60;99.84;99155.69;5013359;28;20500;-66
2022/01/14 09:38:54;;;;;;;248.00;104.10;;;;;;;15.71;100.00;99156.97;5018075;28;20045;-66
2022/01/14 09:41:37;;;;;;;241.98;99.90;;;;;;;15.61;100.00;99152.19;5025139;28;20053;-65
2022/01/14 09:44:21;;;;;;;232.75;99.32;;;;;;;15.55;100.00;99146.41;5012870;28;20064;-67
2022/01/14 09:47:12;;;;;;;236.52;101.38;;;;;;;15.49;100.00;99157.00;5004588;28;20160;-67
2022/01/14 09:49:53;;;;;;;;;;;;;;;15.65;100.00;99145.94;4983481;28;20046;-62
2022/01/14 09:52:47;;;;;;;206.15;94.65;;;;;;;15.68;100.00;99148.41;5011978;28;19933;-65
2022/01/14 09:55:43;;;;;;;238.27;101.73;;;;;;;15.55;100.00;99147.25;5022209;28;20049;-67
2022/01/14 09:58:23;;;;;;;207.27;94.30;;;;;;;15.59;100.00;99137.56;5020126;28;20061;-66
2022/01/14 10:01:18;;;;;;;219.80;95.93;;;;;;;15.61;100.00;99140.94;5014029;28;20132;-67
2022/01/14 10:04:08;;;;;;;217.20;96.45;;;;;;;15.59;100.00;99143.59;5022550;28;20065;-68
2022/01/14 10:06:59;;;;;;;208.65;94.15;;;;;;;15.58;100.00;99136.72;5019088;28;20053;-66
2022/01/14 10:09:47;;;;;;;207.07;95.75;;;;;;;15.62;100.00;99137.44;5018791;28;20099;-66
2022/01/14 10:12:33;;;;;;;204.60;94.45;;;;;;;15.72;100.00;99136.13;5017811;28;20183;-68
2022/01/14 10:15:24;;;;;;;217.48;96.97;;;;;;;15.69;100.00;99144.91;5020037;28;20053;-69
2022/01/14 10:18:13;;;;;;;211.40;92.20;;;;;;;15.51;99.03;99144.81;5020470;28;20107;-66
2022/01/14 10:21:01;;;;;;;204.82;90.95;;;;;;;15.55;100.00;99141.22;5002110;28;20064;-66
2022/01/14 10:23:56;;;;;;;218.75;91.45;;;;;;;15.47;99.36;99133.72;5020779;28;20057;-68
2022/01/14 10:27:10;;;;;;;205.68;89.22;;;;;;;15.61;100.00;99140.94;5001210;28;20041;-67
2022/01/14 10:29:59;;;;;;;219.15;89.47;;;;;;;15.65;100.00;99134.69;5021103;28;20057;-66
2022/01/14 10:32:43;;;;;;;216.05;92.15;;;;;;;15.58;97.64;99133.28;5024190;28;20048;-67
2022/01/14 10:35:35;;;;;;;199.35;87.82;;;;;;;15.45;95.85;99132.09;4972342;28;20061;-67
2022/01/14 10:38:33;;;;;;;202.68;85.95;;;;;;;15.55;97.55;99130.81;5018567;28;20046;-67
2022/01/14 10:41:12;;;;;;;211.85;89.03;;;;;;;15.63;100.00;99124.38;5017794;28;20045;-66
2022/01/14 10:44:08;;;;;;;197.20;86.65;;;;;;;15.50;98.56;99123.19;5003330;28;20431;-67
2022/01/14 10:46:44;;;;;;;202.43;89.25;;;;;;;15.49;100.00;99126.69;5015365;28;20065;-67
2022/01/14 10:49:40;;;;;;;212.63;88.07;;;;;;;15.58;100.00;99121.13;5023327;28;20124;-67
2022/01/14 10:52:21;;;;;;;199.10;88.32;;;;;;;15.56;100.00;99122.13;5020516;28;20183;-68
2022/01/14 10:55:18;;;;;;;195.13;83.82;;;;;;;15.48;100.00;99130.22;5018955;28;20064;-69
2022/01/14 10:57:53;;;;;;;193.18;82.65;;;;;;;15.22;98.51;99133.06;5012248;28;20846;-68
2022/01/14 11:01:06;;;;;;;190.30;82.35;;;;;;;15.42;98.27;99140.84;5006636;28;20045;-68
2022/01/14 11:03:56;;;;;;;187.57;83.25;;;;;;;15.44;97.02;99144.22;5020185;28;20052;-69
2022/01/14 11:06:52;;;;;;;204.95;92.47;;;;;;;15.25;100.00;99127.72;5040035;28;20052;-66
2022/01/14 11:09:32;;;;;;;206.95;95.53;;;;;;;15.18;100.00;99134.06;5027549;28;20049;-67
2022/01/14 11:12:16;;;;;;;237.55;103.80;;;;;;;15.07;100.00;99126.75;5009384;28;20072;-67
2022/01/14 11:15:07;;;;;;;246.32;108.35;;;;;;;15.05;100.00;99120.78;5035282;28;20048;-66
2022/01/14 11:17:56;;;;;;;251.38;111.55;;;;;;;15.02;100.00;99120.03;5035909;28;20460;-67
2022/01/14 11:23:49;;;;;;;253.93;114.30;;;;;;;14.90;100.00;99117.06;5031349;28;20142;-66
2022/01/14 11:26:40;;;;;;;244.95;111.20;;;;;;;14.84;100.00;99119.91;5018161;28;20053;-69
2022/01/14 11:29:26;;;;;;;261.33;114.05;;;;;;;14.65;100.00;99111.16;5035957;28;20078;-67
2022/01/14 11:32:16;;;;;;;247.50;111.20;;;;;;;14.70;100.00;99117.00;5043222;28;20123;-66
2022/01/14 11:34:55;;;;;;;247.52;112.65;;;;;;;14.74;100.00;99115.97;5033842;28;20124;-66
2022/01/14 11:37:46;;;;;;;249.40;114.00;;;;;;;14.70;100.00;99114.41;5031519;28;20059;-66
2022/01/14 11:40:58;;;;;;;261.98;117.22;;;;;;;14.79;100.00;99108.84;5024743;28;20071;-67
2022/01/14 11:43:42;;;;;;;252.20;113.00;;;;;;;14.62;100.00;99111.28;5025591;28;20050;-66
2022/01/14 11:46:32;;;;;;;260.63;114.68;;;;;;;14.46;100.00;99107.59;5028229;28;20064;-67
2022/01/14 11:49:46;;;;;;;250.90;112.05;;;;;;;14.15;100.00;99095.78;5041937;28;20543;-66
2022/01/14 11:52:38;;;;;;;252.65;111.28;;;;;;;14.06;100.00;99098.72;5015124;28;20040;-67
2022/01/14 11:55:32;;;;;;;247.57;109.38;;;;;;;14.04;100.00;99097.94;5038954;28;20048;-66
2022/01/14 11:58:29;;;;;;;258.20;110.22;;;;;;;14.12;100.00;99101.09;5029376;28;20045;-66
2022/01/14 12:01:05;;;;;;;265.50;112.28;;;;;;;13.94;100.00;99096.59;5039691;28;20049;-66
2022/01/14 12:03:54;;;;;;;254.77;116.45;;;;;;;13.79;100.00;99099.75;5040646;28;20060;-66
2022/01/14 12:06:59;;;;;;;261.95;111.72;;;;;;;13.71;100.00;99094.00;5006492;28;20095;-66
2022/01/14 12:10:13;;;;;;;255.88;112.60;;;;;;;13.84;100.00;99089.19;5019564;28;20147;-67
2022/01/14 12:19:18;;;;;;;253.57;114.45;;;;;;;13.55;100.00;99105.78;5016012;28;20428;-66
2022/01/14 12:22:15;;;;;;;273.90;113.18;;;;;;;13.34;100.00;99105.63;5005634;28;20049;-65
2022/01/14 12:24:52;;;;;;;270.88;115.82;;;;;;;13.35;100.00;99102.16;5019830;28;20045;-67
2022/01/14 12:27:51;;;;;;;274.63;116.47;;;;;;;13.32;100.00;99111.78;5017592;28;20049;-66
2022/01/14 12:30:28;;;;;;;283.13;122.05;;;;;;;13.36;100.00;99108.16;5015532;28;20053;-66
2022/01/14 12:33:40;;;;;;;289.98;120.07;;;;;;;13.33;100.00;99114.28;5001965;28;20053;-66
2022/01/14 12:36:30;;;;;;;298.13;120.30;;;;;;;13.28;100.00;99111.00;4986457;28;20116;-67
2022/01/14 12:39:26;;;;;;;321.50;124.03;;;;;;;13.12;100.00;99114.97;5018423;28;20068;-67
2022/01/14 12:42:02;;;;;;;323.00;124.57;;;;;;;13.13;100.00;99119.28;5004241;28;20053;-66
2022/01/14 12:44:52;;;;;;;353.85;133.38;;;;;;;12.99;100.00;99121.47;5015669;28;20054;-66
2022/01/14 12:47:45;;;;;;;353.05;128.90;;;;;;;13.16;100.00;99121.78;5011374;28;20050;-65
2022/01/14 12:50:34;;;;;;;367.70;130.07;;;;;;;13.07;100.00;99126.38;5020812;28;20046;-66
2022/01/14 12:53:22;;;;;;;384.88;130.18;;;;;;;12.91;100.00;99132.06;5014610;28;20045;-66
2022/01/14 12:56:16;;;;;;;359.60;132.15;;;;;;;12.84;100.00;99129.72;4986638;28;20057;-66
2022/01/14 12:59:09;;;;;;;374.17;130.52;;;;;;;12.80;100.00;99128.13;5008807;28;20060;-66
2022/01/14 13:01:53;;;;;;;400.75;134.77;;;;;;;12.76;100.00;99136.88;4998906;28;20088;-66